ADDS METAR Data

Data at: 1827 UTC 20 Jul 2018

METAR for:KWVL (Waterville/Lafleur A, ME, US)
Text:KWVL 201756Z AUTO 22006KT 10SM CLR 28/14 A3015 RMK AO2 SLP231 T02780139 10278 20178 58009
Temperature: 27.8°C ( 82°F)
Dewpoint: 13.9°C ( 57°F) [RH = 43%]
Pressure (altimeter):30.15 inches Hg (1021.1 mb) [Sea level pressure: 1023.1 mb]
Winds:from the SW (220 degrees) at 7 MPH (6 knots; 3.1 m/s)
Visibility:10 or more sm (16+ km)
Ceiling:at least 12,000 feet AGL
Clouds:sky clear below 12,000 feet AGL
QC Flag:automated observation with no human augmentation